KAKR/AKR METAR and TAF weather

Enter ICAO airport designator
Station Type Date Time Source
KAKR METAR 2019/08/22 02:54 UTC NOAA

KAKR 220254Z AUTO 21007KT 10SM CLR 24/20 A2995 RMK AO2 SLP132 T02390200 50007


Station Type Date Time Source
KAKR Decoded METAR 2019/08/22 02:54 UTC NOAA

Station name not available
Aug 21, 2019 - 10:54 PM EDT / 2019.08.22 0254 UTC
Wind: from the SSW (210 degrees) at 8 MPH (7 KT):0
Visibility: 10 mile(s):0
Sky conditions: clear
Temperature: 75.0 F (23.9 C)
Dew Point: 68.0 F (20.0 C)
Relative Humidity: 78%
Pressure (altimeter): 29.95 in. Hg (1014 hPa)
Pressure tendency: 0.02 inches (0.7 hPa) higher than three hours ago
ob: KAKR 220254Z AUTO 21007KT 10SM CLR 24/20 A2995 RMK AO2 SLP132 T02390200 50007
cycle: 3

Station Type Date Time Source
KAKR TAF UTC NOAA

Error!

Example: see airport list